Flight Track Log - Related Links

Times and Time Zones

All times are in EDT time to prevent confusion due to time zone crossing. See the JBU51 flight status page for this flight to view local times or setup timezone preferences in your user account.

Time Position Orientation Groundspeed Altitude Reporting Facility
EDT Latitude Longitude Course Direction KTS MPH feet Rate Location/Type
Fri 10:56:16 AM 44.4689 -73.2489 196° South 156 180 5,400  Level Boston Center
Fri 10:57:00 AM 44.2272 -73.2307 190° South  Level FlightAware Approximate
Fri 10:57:16 AM 44.4125 -73.2683 194° South 183 211 9,300  Level Boston Center
Fri 10:58:00 AM 44.1507 -73.2685 195° South  Level FlightAware Approximate
Fri 10:58:16 AM 44.3456 -73.2936 195° South 230 265 11,200  Level Boston Center
Fri 10:59:00 AM 44.0712 -73.2983 195° South  Level FlightAware Approximate
Fri 10:59:16 AM 44.2642 -73.3214 194° South 285 328 13,900  Level Boston Center
Fri 11:00:00 AM 43.9912 -73.3252 194° South  Level FlightAware Approximate
Fri 11:00:16 AM 44.1722 -73.3519 193° South 326 375 15,600  Level Boston Center
Fri 11:01:00 AM 43.9113 -73.3522 196° South  Level FlightAware Approximate
Fri 11:01:16 AM 44.0594 -73.3878 193° South 372 428 18,100  Level Boston Center
Fri 11:02:16 AM 43.9550 -73.4206 193° South 389 448 19,900 1,900 Climbing Boston Center
Fri 11:03:16 AM 43.8464 -73.4564 193° South 406 467 21,900 1,900 Climbing Boston Center
Fri 11:04:16 AM 43.7336 -73.4917 193° South 412 474 23,700 1,550 Climbing Boston Center
Fri 11:05:16 AM 43.6519 -73.5189 194° South 420 483 25,000 1,450 Climbing Boston Center
Fri 11:06:16 AM 43.5078 -73.5650 193° South 433 498 26,600 1,450 Climbing Boston Center
Fri 11:07:16 AM 43.3864 -73.6028 193° South 443 510 27,900 700 Climbing Boston Center
Fri 11:08:16 AM 43.2589 -73.6431 193° South 455 524 28,000 50 Climbing Boston Center
Fri 11:09:16 AM 43.1231 -73.6861 193° South 455 524 28,000  Level Boston Center
Fri 11:10:16 AM 42.9975 -73.7261 193° South 455 524 28,000  Level Boston Center
Fri 11:11:16 AM 42.8719 -73.7658 193° South 460 529 28,000  Level Boston Center
Fri 11:12:16 AM 42.7422 -73.8083 194° South 470 541 28,000  Level Boston Center
Fri 11:13:16 AM 42.6150 -73.8281 187° South 470 541 28,000  Level Boston Center
Fri 11:14:16 AM 42.4817 -73.8139 176° South 464 534 28,000  Level Boston Center
Fri 11:15:16 AM 42.3503 -73.8139 180° South 476 548 28,000  Level Boston Center
Fri 11:16:16 AM 42.2169 -73.8164 181° South 481 554 28,000  Level Boston Center
Fri 11:17:16 AM 42.0856 -73.8192 181° South 481 554 28,000  Level Boston Center
Fri 11:18:16 AM 41.9500 -73.8219 181° South 481 554 28,000 -459 Level Boston Center
Fri 11:20:06 AM 41.7261 -73.9006 195° South 463 533 26,700 -1,321 Descending New York Center
Fri 11:21:04 AM 41.6081 -73.9589 200° South 463 533 24,300 -2,420 Descending New York Center
Fri 11:22:05 AM 41.4961 -74.0117 199° South 445 512 21,900 -2,115 Descending New York Center
Fri 11:23:06 AM 41.3906 -74.0647 201° Southwest 429 494 20,000 -958 Descending New York Center
Fri 11:24:04 AM 41.2925 -74.1425 211° Southwest 408 470 20,000  Level New York Center
Fri 11:25:04 AM 41.2094 -74.2131 213° Southwest 408 470 20,000 -492 Level New York Center
Fri 11:26:06 AM 41.1056 -74.2736 204° Southwest 408 470 19,000 -698 Descending New York Center
Fri 11:26:30 AM 41.0333 -74.2667 176° South 422 486 19,000  Level New York TRACON
Fri 11:27:30 AM 40.9333 -74.1833 148° Southeast 432 497 19,000  Level New York TRACON
Fri 11:28:24 AM 40.8833 -74.0833 123° Southeast 370 426 19,000 -500 Level New York TRACON
Fri 11:29:30 AM 40.8333 -73.9500 116° Southeast 359 413 18,000 -1,238 Descending New York TRACON
Fri 11:30:30 AM 40.7667 -73.8500 131° Southeast 344 396 16,400 -1,737 Descending New York TRACON
Fri 11:31:24 AM 40.7167 -73.7667 128° Southeast 334 384 14,700 -2,263 Descending New York TRACON
Fri 11:32:24 AM 40.6500 -73.7000 143° Southeast 391 450 12,100 -2,579 Descending New York TRACON
Fri 11:33:25 AM 40.5667 -73.6667 163° South 286 329 9,500 -2,100 Descending New York TRACON
Fri 11:34:24 AM 40.4833 -73.6500 171° South 276 318 7,900 -1,765 Descending New York TRACON
Fri 11:35:24 AM 40.4500 -73.7333 242° Southwest 262 302 6,000 -2,000 Descending New York TRACON
Fri 11:36:24 AM 40.4667 -73.8167 285° West 249 287 3,900 -1,600 Descending New York TRACON
Fri 11:37:24 AM 40.5167 -73.8667 323° Northwest 226 260 2,800 -1,050 Descending New York TRACON
Fri 11:38:24 AM 40.5500 -73.8333 37° Northeast 162 186 1,800 -1,000 Descending New York TRACON
Fri 11:39:24 AM 40.5833 -73.8167 21° North 138 159 800 -850 Descending New York TRACON
Fri 11:40:24 AM 40.6167 -73.7833 37° Northeast 137 158 100 -700 Descending New York TRACON

Login

Don't have an account? Register now (free) for customized features, flight alerts, and more!